createdAt,value
2023-04-10T00:00:36.498Z,13.93
2023-04-10T00:03:04.302Z,16.95
2023-04-10T00:05:31.733Z,17.67
2023-04-10T00:07:58.738Z,16.52
2023-04-10T00:10:26.661Z,16.08
2023-04-10T00:12:54.262Z,15.40
2023-04-10T00:15:21.342Z,14.50
2023-04-10T00:17:50.741Z,14.60
2023-04-10T00:20:17.833Z,14.60
2023-04-10T00:22:44.844Z,15.23
2023-04-10T00:27:56.369Z,13.95
2023-04-10T00:30:23.377Z,14.13
2023-04-10T00:32:50.483Z,13.80
2023-04-10T00:35:17.678Z,13.70
2023-04-10T00:37:44.626Z,13.50
2023-04-10T00:40:12.467Z,13.52
2023-04-10T00:42:39.988Z,10.98
2023-04-10T00:45:07.563Z,12.50
2023-04-10T00:47:34.838Z,10.98
2023-04-10T00:50:01.983Z,12.43
2023-04-10T00:52:30.602Z,11.70
2023-04-10T00:54:58.163Z,13.52
2023-04-10T00:57:26.547Z,14.35
2023-04-10T00:59:54.082Z,29.02
2023-04-10T01:02:21.458Z,21.25
2023-04-10T01:04:51.199Z,21.70
2023-04-10T01:07:46.050Z,21.92
2023-04-10T01:10:33.296Z,24.20
2023-04-10T01:13:28.012Z,21.77
2023-04-10T01:16:14.435Z,22.88
2023-04-10T01:19:15.143Z,19.67
2023-04-10T01:21:42.676Z,18.88
2023-04-10T01:24:35.604Z,18.35
2023-04-10T01:27:21.148Z,18.33
2023-04-10T01:29:55.590Z,16.77
2023-04-10T01:32:24.134Z,17.23
2023-04-10T01:34:56.031Z,18.23
2023-04-10T01:37:31.312Z,19.88
2023-04-10T01:40:04.201Z,20.95
2023-04-10T01:42:33.025Z,14.63
2023-04-10T01:45:01.981Z,15.30
2023-04-10T01:49:58.325Z,14.02
2023-04-10T01:52:26.619Z,15.82
2023-04-10T01:55:09.472Z,14.88
2023-04-10T01:57:44.404Z,15.57
2023-04-10T02:00:12.412Z,17.45
2023-04-10T02:02:43.309Z,16.20
2023-04-10T02:05:11.186Z,14.43
2023-04-10T02:07:47.632Z,18.02
2023-04-10T02:10:18.015Z,18.08
2023-04-10T02:13:01.757Z,17.80
2023-04-10T02:15:32.641Z,14.57
2023-04-10T02:18:04.462Z,14.15
2023-04-10T02:20:32.569Z,13.50
2023-04-10T02:23:03.877Z,12.50
2023-04-10T02:25:35.132Z,13.13
2023-04-10T02:28:05.988Z,11.38
2023-04-10T02:30:35.987Z,14.13
2023-04-10T02:33:03.319Z,11.43
2023-04-10T02:35:31.951Z,12.70
2023-04-10T02:37:59.001Z,13.50
2023-04-10T02:40:26.327Z,13.05
2023-04-10T02:43:08.252Z,13.63
2023-04-10T02:45:35.303Z,13.35
2023-04-10T02:48:02.918Z,14.05
2023-04-10T02:50:31.914Z,13.85
2023-04-10T02:53:00.405Z,13.23
2023-04-10T02:55:27.502Z,13.73
2023-04-10T02:57:54.622Z,13.93
2023-04-10T03:00:21.718Z,13.25
2023-04-10T03:03:06.635Z,13.52
2023-04-10T03:05:42.068Z,14.45
2023-04-10T03:08:09.153Z,15.50
2023-04-10T03:10:36.562Z,17.13
2023-04-10T03:13:03.568Z,13.68
2023-04-10T03:15:30.595Z,18.85
2023-04-10T03:17:58.618Z,14.70
2023-04-10T03:20:25.693Z,14.15
2023-04-10T03:22:52.682Z,14.20
2023-04-10T03:25:21.027Z,12.82
2023-04-10T03:27:47.940Z,13.95
2023-04-10T03:30:14.982Z,13.30
2023-04-10T03:32:43.371Z,13.32
2023-04-10T03:35:10.920Z,12.98
2023-04-10T03:37:37.929Z,13.18
2023-04-10T03:40:09.505Z,13.23
2023-04-10T03:42:36.686Z,12.55
2023-04-10T03:45:04.944Z,13.27
2023-04-10T03:47:32.098Z,12.23
2023-04-10T03:50:00.687Z,12.73
2023-04-10T03:52:33.883Z,13.65
2023-04-10T03:55:00.879Z,14.45
2023-04-10T03:57:30.479Z,14.85
2023-04-10T04:00:04.475Z,14.27
2023-04-10T04:02:51.192Z,14.82
2023-04-10T04:05:38.436Z,14.65
2023-04-10T04:08:32.148Z,14.65
2023-04-10T04:11:08.163Z,14.75
2023-04-10T04:14:01.621Z,15.88
2023-04-10T04:16:47.483Z,14.63
2023-04-10T04:19:30.308Z,15.85
2023-04-10T04:22:30.345Z,15.82
2023-04-10T04:25:26.557Z,15.80
2023-04-10T04:27:53.545Z,15.75
2023-04-10T04:30:32.987Z,14.85
2023-04-10T04:33:19.047Z,15.45
2023-04-10T04:35:57.944Z,16.05
2023-04-10T04:38:43.454Z,15.93
2023-04-10T04:41:10.392Z,14.38
2023-04-10T04:44:05.270Z,15.40
2023-04-10T04:46:55.262Z,13.77
2023-04-10T04:49:40.495Z,14.55
2023-04-10T04:52:30.483Z,13.15
2023-04-10T04:55:16.114Z,13.93
2023-04-10T04:58:01.979Z,13.85
2023-04-10T05:01:01.501Z,12.40
2023-04-10T05:03:51.831Z,11.63
2023-04-10T05:06:42.170Z,13.23
2023-04-10T05:09:38.459Z,13.50
2023-04-10T05:12:31.328Z,13.27
2023-04-10T05:15:07.715Z,13.68
2023-04-10T05:17:53.886Z,14.85
2023-04-10T05:20:44.145Z,14.60
2023-04-10T05:23:43.545Z,15.38
2023-04-10T05:26:38.066Z,14.07
2023-04-10T05:29:26.856Z,15.48
2023-04-10T05:32:19.521Z,15.77
2023-04-10T05:35:05.844Z,14.93
2023-04-10T05:37:59.260Z,14.35
2023-04-10T05:40:41.087Z,13.93
2023-04-10T05:43:36.600Z,13.88
2023-04-10T05:46:32.753Z,12.50
2023-04-10T05:52:03.587Z,11.35
2023-04-10T05:54:45.633Z,10.77
2023-04-10T05:57:32.144Z,10.85
2023-04-10T06:00:19.856Z,10.07
2023-04-10T06:03:05.636Z,11.25
2023-04-10T06:05:34.977Z,10.63
2023-04-10T06:08:05.495Z,10.73
2023-04-10T06:10:32.896Z,16.27
2023-04-10T06:12:59.927Z,11.20
2023-04-10T06:15:26.999Z,11.45
2023-04-10T06:17:54.266Z,12.43
2023-04-10T06:20:21.552Z,11.88
2023-04-10T06:22:50.713Z,12.07
2023-04-10T06:25:17.842Z,11.32
2023-04-10T06:27:45.021Z,12.13
2023-04-10T06:30:12.198Z,11.95
2023-04-10T06:32:39.178Z,9.63
2023-04-10T06:35:08.058Z,10.77
2023-04-10T06:37:35.051Z,10.35
2023-04-10T06:40:14.616Z,10.70
2023-04-10T06:42:41.937Z,10.00
2023-04-10T06:45:29.380Z,10.90
2023-04-10T06:47:56.512Z,11.10
2023-04-10T06:50:23.572Z,11.55
2023-04-10T06:52:50.694Z,11.57
2023-04-10T06:55:17.811Z,11.23
2023-04-10T06:57:45.752Z,10.75
2023-04-10T07:00:13.661Z,16.08
2023-04-10T07:02:41.227Z,11.75
2023-04-10T07:05:08.985Z,11.73
2023-04-10T07:07:36.634Z,11.88
2023-04-10T07:10:04.343Z,10.88
2023-04-10T07:12:31.421Z,12.00
2023-04-10T07:14:58.468Z,13.45
2023-04-10T07:17:25.980Z,11.38
2023-04-10T07:19:53.078Z,11.07
2023-04-10T07:22:20.015Z,10.85
2023-04-10T07:37:27.869Z,10.00
2023-04-10T07:39:54.923Z,10.95
2023-04-10T07:42:23.238Z,10.05
2023-04-10T07:44:50.345Z,10.85
2023-04-10T07:47:18.206Z,10.63
2023-04-10T07:49:45.417Z,11.07
2023-04-10T07:52:12.357Z,12.68
2023-04-10T07:54:39.419Z,12.90
2023-04-10T07:57:06.434Z,13.30
2023-04-10T07:59:33.419Z,16.50
2023-04-10T08:02:00.634Z,18.63
2023-04-10T08:04:27.818Z,20.77
2023-04-10T08:06:55.041Z,21.05
2023-04-10T08:09:22.087Z,17.23
2023-04-10T08:11:49.255Z,19.65
2023-04-10T08:14:18.027Z,19.13
2023-04-10T08:16:46.068Z,20.53
2023-04-10T08:19:13.318Z,20.08
2023-04-10T08:21:40.311Z,17.27
2023-04-10T08:24:07.303Z,20.13
2023-04-10T08:26:34.386Z,16.20
2023-04-10T08:29:01.542Z,20.02
2023-04-10T08:31:29.788Z,18.75
2023-04-10T08:33:58.188Z,18.50
2023-04-10T08:36:27.330Z,18.40
2023-04-10T08:38:54.388Z,17.38
2023-04-10T08:41:22.126Z,15.60
2023-04-10T08:43:50.231Z,14.98
2023-04-10T08:46:17.369Z,14.68
2023-04-10T08:48:52.855Z,13.57
2023-04-10T08:51:26.071Z,13.77
2023-04-10T08:53:59.087Z,13.77
2023-04-10T08:56:27.019Z,13.13
2023-04-10T08:58:54.426Z,13.98
2023-04-10T09:01:22.116Z,13.73
2023-04-10T09:03:49.239Z,12.88
2023-04-10T09:06:16.365Z,11.90
2023-04-10T09:08:43.361Z,11.30
2023-04-10T09:11:13.389Z,12.52
2023-04-10T09:13:42.506Z,13.07
2023-04-10T09:16:10.726Z,11.52
2023-04-10T09:18:41.684Z,11.63
2023-04-10T09:21:11.178Z,13.80
2023-04-10T09:23:38.294Z,12.37
2023-04-10T09:26:24.605Z,14.18
2023-04-10T09:29:03.196Z,12.32
2023-04-10T09:31:33.121Z,11.68
2023-04-10T09:34:09.074Z,12.45
2023-04-10T09:36:37.569Z,12.13
2023-04-10T09:39:06.064Z,10.98
2023-04-10T09:41:33.076Z,11.55
2023-04-10T09:44:28.893Z,11.63
2023-04-10T09:46:56.003Z,11.27
2023-04-10T09:49:23.829Z,12.50
2023-04-10T09:51:50.808Z,11.20
2023-04-10T09:54:17.751Z,12.27
2023-04-10T09:56:47.280Z,11.60
2023-04-10T09:59:14.652Z,12.85
2023-04-10T10:01:42.712Z,13.38
2023-04-10T10:04:11.254Z,11.07
2023-04-10T10:06:39.093Z,11.40
2023-04-10T10:09:06.295Z,13.10
2023-04-10T10:11:38.185Z,11.38
2023-04-10T10:14:17.397Z,12.40
2023-04-10T10:16:50.080Z,11.00
2023-04-10T10:19:22.235Z,11.05
2023-04-10T10:21:50.393Z,12.68
2023-04-10T10:24:20.536Z,11.23
2023-04-10T10:26:47.963Z,12.50
2023-04-10T10:29:17.518Z,11.50
2023-04-10T10:31:46.228Z,12.00
2023-04-10T10:34:14.473Z,12.48
2023-04-10T10:36:41.532Z,11.27
2023-04-10T10:39:11.472Z,13.43
2023-04-10T10:41:49.662Z,12.30
2023-04-10T10:44:28.978Z,12.82
2023-04-10T10:47:12.461Z,11.40
2023-04-10T10:49:59.331Z,11.43
2023-04-10T10:52:41.844Z,10.93
2023-04-10T10:55:35.134Z,10.93
2023-04-10T10:58:09.299Z,10.02
2023-04-10T11:00:51.621Z,12.70
2023-04-10T11:03:18.836Z,10.43
2023-04-10T11:05:55.974Z,11.52
2023-04-10T11:08:43.381Z,10.80
2023-04-10T11:11:11.412Z,10.07
2023-04-10T11:14:02.454Z,10.90
2023-04-10T11:16:36.491Z,10.88
2023-04-10T11:19:14.219Z,10.82
2023-04-10T11:22:15.726Z,11.02
2023-04-10T11:25:00.371Z,10.40
2023-04-10T11:27:45.764Z,9.00
2023-04-10T11:30:33.964Z,9.75
2023-04-10T11:33:02.759Z,9.35
2023-04-10T11:35:31.778Z,9.20
2023-04-10T11:38:09.500Z,9.00
2023-04-10T11:40:36.592Z,8.93
2023-04-10T11:43:15.635Z,9.23
2023-04-10T11:45:42.661Z,9.03
2023-04-10T11:48:09.646Z,9.48
2023-04-10T11:50:36.717Z,9.00
2023-04-10T11:53:18.480Z,9.23
2023-04-10T11:55:45.427Z,10.50
2023-04-10T11:58:26.854Z,9.93
2023-04-10T12:01:04.855Z,9.85
2023-04-10T12:03:40.380Z,10.68
2023-04-10T12:06:12.529Z,10.25
2023-04-10T12:08:42.023Z,10.70
2023-04-10T12:11:11.131Z,13.68
2023-04-10T12:13:38.856Z,12.20
2023-04-10T12:16:10.407Z,11.32
2023-04-10T12:18:38.237Z,11.70
2023-04-10T12:21:08.174Z,13.77
2023-04-10T12:23:39.179Z,13.38
2023-04-10T12:26:09.548Z,12.82
2023-04-10T12:28:38.322Z,15.48
2023-04-10T12:31:06.172Z,12.73
2023-04-10T12:33:33.544Z,16.75
2023-04-10T12:36:00.635Z,17.02
2023-04-10T12:38:45.134Z,15.48
2023-04-10T12:41:12.609Z,13.65
2023-04-10T12:43:42.545Z,13.65
2023-04-10T12:48:37.607Z,15.25
2023-04-10T12:51:04.825Z,13.68
2023-04-10T12:53:32.018Z,13.60
2023-04-10T12:56:06.682Z,14.15
2023-04-10T12:58:33.580Z,13.15
2023-04-10T13:01:07.469Z,13.88
2023-04-10T13:03:34.940Z,12.77
2023-04-10T13:06:02.875Z,13.75
2023-04-10T13:08:32.390Z,13.07
2023-04-10T13:11:05.853Z,13.88
2023-04-10T13:13:33.030Z,14.88
2023-04-10T13:16:00.570Z,13.55
2023-04-10T13:18:27.801Z,13.55
2023-04-10T13:20:54.887Z,14.70
2023-04-10T13:23:21.853Z,14.13
2023-04-10T13:25:48.878Z,14.50
2023-04-10T13:28:16.168Z,14.63
2023-04-10T13:30:45.107Z,13.05
2023-04-10T13:33:12.019Z,14.35
2023-04-10T13:35:41.905Z,16.63
2023-04-10T13:38:09.708Z,13.90
2023-04-10T13:40:36.747Z,13.80
2023-04-10T13:43:04.135Z,12.98
2023-04-10T13:45:31.858Z,13.43
2023-04-10T13:47:58.933Z,12.00
2023-04-10T13:50:26.013Z,11.80
2023-04-10T13:52:53.691Z,11.68
2023-04-10T13:55:21.011Z,13.07
2023-04-10T13:57:47.896Z,12.43
2023-04-10T14:00:15.245Z,11.73
2023-04-10T14:02:42.826Z,11.65
2023-04-10T14:05:10.548Z,11.35
2023-04-10T14:07:37.633Z,11.45
2023-04-10T14:10:04.891Z,11.77
2023-04-10T14:12:31.880Z,11.30
2023-04-10T14:14:59.442Z,10.40
2023-04-10T14:17:26.937Z,11.32
2023-04-10T14:19:54.181Z,12.40
2023-04-10T14:22:21.423Z,13.05
2023-04-10T14:24:48.990Z,14.93
2023-04-10T14:27:17.260Z,12.95
2023-04-10T14:29:50.891Z,12.88
2023-04-10T14:32:21.941Z,12.52
2023-04-10T14:34:49.357Z,12.88
2023-04-10T14:37:16.485Z,12.77
2023-04-10T14:39:45.095Z,18.15
2023-04-10T14:42:11.993Z,12.32
2023-04-10T14:44:39.456Z,13.40
2023-04-10T14:47:06.682Z,13.48
2023-04-10T14:49:34.031Z,12.70
2023-04-10T14:52:01.134Z,12.60
2023-04-10T14:54:28.205Z,13.15
2023-04-10T14:56:55.177Z,12.35
2023-04-10T14:59:22.194Z,13.02
2023-04-10T15:01:49.458Z,11.93
2023-04-10T15:04:16.627Z,13.50
2023-04-10T15:06:43.644Z,10.85
2023-04-10T15:09:10.632Z,11.50
2023-04-10T15:11:37.583Z,11.75
2023-04-10T15:14:04.646Z,11.95
2023-04-10T15:16:31.770Z,12.10
2023-04-10T15:18:58.891Z,25.38
2023-04-10T15:21:27.433Z,11.32
2023-04-10T15:23:54.568Z,11.85
2023-04-10T15:26:21.890Z,11.57
2023-04-10T15:28:48.935Z,9.70
2023-04-10T15:31:16.651Z,11.15
2023-04-10T15:33:43.499Z,10.38
2023-04-10T15:36:10.905Z,11.20
2023-04-10T15:38:38.196Z,10.68
2023-04-10T15:41:12.936Z,11.25
2023-04-10T15:43:40.003Z,11.25
2023-04-10T15:46:07.300Z,11.35
2023-04-10T15:48:34.411Z,11.38
2023-04-10T15:51:05.531Z,10.95
2023-04-10T15:53:32.977Z,11.80
2023-04-10T15:55:59.852Z,12.80
2023-04-10T15:58:27.377Z,13.85
2023-04-10T16:00:54.415Z,14.70
2023-04-10T16:03:21.776Z,15.27
2023-04-10T16:05:48.839Z,15.00
2023-04-10T16:08:15.832Z,15.10
2023-04-10T16:10:42.759Z,13.82
2023-04-10T16:13:09.716Z,13.60
2023-04-10T16:15:38.117Z,12.82
2023-04-10T16:18:06.734Z,13.73
2023-04-10T16:20:34.466Z,12.98
2023-04-10T16:23:01.580Z,13.50
2023-04-10T16:25:28.662Z,13.23
2023-04-10T16:27:56.315Z,13.27
2023-04-10T16:30:23.864Z,14.88
2023-04-10T16:32:51.411Z,15.30
2023-04-10T16:35:19.246Z,14.02
2023-04-10T16:37:46.735Z,13.80
2023-04-10T16:40:14.382Z,14.88
2023-04-10T16:42:42.996Z,14.45
2023-04-10T16:45:10.743Z,13.57
2023-04-10T16:47:38.369Z,13.65
2023-04-10T16:50:06.230Z,14.48
2023-04-10T16:52:33.466Z,14.50
2023-04-10T16:55:00.613Z,12.13
2023-04-10T16:57:27.667Z,12.60
2023-04-10T17:00:00.995Z,13.18
2023-04-10T17:02:29.831Z,12.75
2023-04-10T17:04:56.932Z,16.25
2023-04-10T17:07:24.330Z,12.68
2023-04-10T17:09:51.431Z,12.30
2023-04-10T17:12:18.703Z,13.30
2023-04-10T17:14:46.070Z,14.57
2023-04-10T17:17:13.238Z,12.75
2023-04-10T17:19:40.255Z,12.27
2023-04-10T17:22:16.192Z,12.75
2023-04-10T17:24:46.363Z,11.68
2023-04-10T17:27:13.726Z,12.00
2023-04-10T17:29:41.491Z,12.73
2023-04-10T17:32:08.874Z,21.42
2023-04-10T17:34:35.975Z,14.07
2023-04-10T17:37:09.882Z,13.90
2023-04-10T17:39:37.239Z,14.95
2023-04-10T17:42:19.719Z,13.85
2023-04-10T17:44:47.386Z,15.48
2023-04-10T17:47:20.317Z,16.65
2023-04-10T17:49:47.614Z,18.00
2023-04-10T17:52:14.757Z,12.93
2023-04-10T17:54:42.038Z,15.77
2023-04-10T17:57:09.690Z,20.15
2023-04-10T17:59:36.690Z,15.18
2023-04-10T18:02:09.708Z,16.77
2023-04-10T18:04:36.776Z,17.23
2023-04-10T18:07:04.502Z,17.20
2023-04-10T18:09:31.590Z,16.50
2023-04-10T18:11:58.747Z,16.90
2023-04-10T18:14:25.777Z,17.08
2023-04-10T18:16:52.925Z,16.90
2023-04-10T18:19:20.098Z,15.50
2023-04-10T18:21:47.238Z,16.42
2023-04-10T18:24:14.431Z,12.35
2023-04-10T18:26:41.626Z,11.57
2023-04-10T18:29:08.639Z,15.07
2023-04-10T18:31:35.630Z,16.73
2023-04-10T18:34:07.759Z,19.88
2023-04-10T18:36:35.820Z,20.20
2023-04-10T18:39:03.100Z,21.88
2023-04-10T18:41:30.869Z,21.30
2023-04-10T18:44:04.720Z,19.13
2023-04-10T18:46:33.380Z,18.92
2023-04-10T18:49:01.425Z,20.13
2023-04-10T18:51:34.618Z,18.60
2023-04-10T18:54:03.839Z,16.55
2023-04-10T18:56:36.295Z,18.98
2023-04-10T18:59:07.334Z,17.58
2023-04-10T19:01:34.728Z,18.00
2023-04-10T19:04:02.543Z,18.73
2023-04-10T19:09:19.876Z,19.10
2023-04-10T19:11:46.977Z,17.58
2023-04-10T19:14:14.067Z,17.63
2023-04-10T19:16:41.134Z,17.20
2023-04-10T19:19:08.224Z,15.48
2023-04-10T19:21:35.286Z,13.75
2023-04-10T19:24:02.406Z,17.58
2023-04-10T19:29:43.470Z,22.75
2023-04-10T19:32:11.038Z,21.88
2023-04-10T19:34:39.255Z,22.98
2023-04-10T19:37:06.893Z,23.00
2023-04-10T19:39:34.317Z,24.58
2023-04-10T19:42:02.182Z,25.40
2023-04-10T19:44:29.639Z,27.90
2023-04-10T19:46:56.800Z,23.27
2023-04-10T19:49:24.545Z,24.35
2023-04-10T19:51:56.630Z,23.17
2023-04-10T19:54:26.788Z,20.65
2023-04-10T19:56:53.990Z,20.00
2023-04-10T19:59:23.695Z,20.52
2023-04-10T20:01:57.544Z,21.75
2023-04-10T20:04:24.805Z,34.22
2023-04-10T20:06:52.009Z,29.92
2023-04-10T20:09:19.049Z,27.30
2023-04-10T20:11:46.059Z,26.15
2023-04-10T20:14:13.067Z,23.08
2023-04-10T20:16:41.222Z,23.73
2023-04-10T20:19:08.295Z,26.63
2023-04-10T20:21:35.403Z,24.80
2023-04-10T20:24:02.587Z,24.10
2023-04-10T20:26:29.584Z,22.73
2023-04-10T20:28:57.440Z,25.85
2023-04-10T20:31:24.960Z,24.77
2023-04-10T20:33:53.855Z,28.42
2023-04-10T20:36:20.978Z,30.52
2023-04-10T20:38:48.003Z,28.02
2023-04-10T20:41:15.022Z,27.67
2023-04-10T20:43:43.280Z,28.38
2023-04-10T20:46:10.347Z,29.85
2023-04-10T20:48:40.467Z,28.45
2023-04-10T20:51:07.700Z,27.35
2023-04-10T20:53:34.612Z,26.92
2023-04-10T20:56:03.053Z,26.20
2023-04-10T20:58:31.812Z,25.45
2023-04-10T21:00:58.975Z,24.98
2023-04-10T21:03:26.275Z,25.50
2023-04-10T21:05:54.043Z,23.30
2023-04-10T21:08:21.338Z,24.55
2023-04-10T21:10:48.287Z,23.05
2023-04-10T21:13:15.890Z,23.90
2023-04-10T21:15:43.369Z,24.02
2023-04-10T21:18:10.879Z,22.75
2023-04-10T21:20:37.812Z,23.38
2023-04-10T21:23:04.871Z,23.23
2023-04-10T21:25:33.725Z,23.40
2023-04-10T21:28:01.920Z,21.92
2023-04-10T21:30:29.497Z,22.55
2023-04-10T21:32:56.612Z,22.55
2023-04-10T21:35:27.309Z,23.20
2023-04-10T21:37:58.344Z,24.55
2023-04-10T21:40:30.097Z,25.65
2023-04-10T21:42:57.069Z,24.42
2023-04-10T21:45:24.168Z,22.75
2023-04-10T21:47:51.196Z,23.85
2023-04-10T21:50:18.288Z,23.45
2023-04-10T21:52:45.278Z,23.60
2023-04-10T21:55:12.483Z,23.42
2023-04-10T21:57:39.417Z,23.02
2023-04-10T22:00:09.854Z,23.17
2023-04-10T22:02:37.304Z,22.38
2023-04-10T22:05:04.492Z,24.30
2023-04-10T22:07:32.180Z,24.10
2023-04-10T22:09:59.134Z,23.33
2023-04-10T22:12:26.090Z,23.85
2023-04-10T22:14:53.145Z,24.58
2023-04-10T22:17:20.262Z,24.05
2023-04-10T22:19:47.228Z,21.60
2023-04-10T22:22:14.322Z,23.45
2023-04-10T22:24:41.316Z,21.67
2023-04-10T22:27:08.399Z,21.95
2023-04-10T22:29:35.920Z,22.63
2023-04-10T22:32:03.125Z,22.55
2023-04-10T22:34:30.019Z,23.80
2023-04-10T22:36:57.069Z,24.65
2023-04-10T22:39:23.996Z,29.98
2023-04-10T22:41:51.013Z,30.02
2023-04-10T22:44:18.205Z,29.15
2023-04-10T22:46:48.319Z,29.50
2023-04-10T22:49:18.330Z,28.35
2023-04-10T22:51:48.491Z,28.50
2023-04-10T22:54:16.223Z,28.52
2023-04-10T22:56:44.267Z,29.13
2023-04-10T22:59:11.233Z,27.85
2023-04-10T23:01:38.367Z,24.08
2023-04-10T23:04:05.462Z,21.50
2023-04-10T23:06:32.638Z,22.70
2023-04-10T23:08:59.610Z,22.77
2023-04-10T23:11:26.748Z,18.08
2023-04-10T23:13:53.758Z,20.55
2023-04-10T23:16:21.037Z,22.75
2023-04-10T23:18:49.685Z,16.35
2023-04-10T23:21:16.689Z,16.50
2023-04-10T23:23:43.657Z,17.08
2023-04-10T23:26:11.680Z,16.33
2023-04-10T23:28:39.005Z,13.70
2023-04-10T23:31:06.447Z,18.17
2023-04-10T23:33:33.477Z,19.08
2023-04-10T23:36:00.714Z,27.30
2023-04-10T23:38:27.836Z,31.17
2023-04-10T23:40:54.970Z,30.50
2023-04-10T23:43:21.884Z,29.52
2023-04-10T23:45:48.837Z,31.90
2023-04-10T23:48:16.401Z,29.80
2023-04-10T23:50:43.647Z,23.25
2023-04-10T23:53:11.815Z,26.13
2023-04-10T23:55:40.054Z,23.58
2023-04-10T23:58:07.298Z,25.02
